createdAt,value
2022-10-23T00:01:43.746Z,19.40
2022-10-23T00:04:16.538Z,19.40
2022-10-23T00:06:45.444Z,19.40
2022-10-23T00:09:17.540Z,19.40
2022-10-23T00:11:47.677Z,19.40
2022-10-23T00:14:17.802Z,19.40
2022-10-23T00:16:47.947Z,19.40
2022-10-23T00:19:15.996Z,19.40
2022-10-23T00:21:44.156Z,19.40
2022-10-23T00:24:12.239Z,19.30
2022-10-23T00:26:40.643Z,19.30
2022-10-23T00:29:10.581Z,19.30
2022-10-23T00:31:39.470Z,19.30
2022-10-23T00:34:09.199Z,19.30
2022-10-23T00:36:37.830Z,19.30
2022-10-23T00:39:06.992Z,19.30
2022-10-23T00:41:35.495Z,19.30
2022-10-23T00:44:09.339Z,19.20
2022-10-23T00:46:40.093Z,19.20
2022-10-23T00:51:48.944Z,19.20
2022-10-23T00:54:24.692Z,19.20
2022-10-23T00:56:57.216Z,19.20
2022-10-23T00:59:26.195Z,19.20
2022-10-23T01:01:54.667Z,19.20
2022-10-23T01:04:25.718Z,19.20
2022-10-23T01:07:04.116Z,19.10
2022-10-23T01:09:40.221Z,19.10
2022-10-23T01:12:18.643Z,18.90
2022-10-23T01:15:05.091Z,19.10
2022-10-23T01:17:44.484Z,19.10
2022-10-23T01:20:33.147Z,19.00
2022-10-23T01:23:37.075Z,19.00
2022-10-23T01:26:26.972Z,19.00
2022-10-23T01:29:04.732Z,19.00
2022-10-23T01:31:41.190Z,19.00
2022-10-23T01:34:15.447Z,19.00
2022-10-23T01:36:51.708Z,19.00
2022-10-23T01:39:28.293Z,18.90
2022-10-23T01:42:02.900Z,18.90
2022-10-23T01:44:42.655Z,18.90
2022-10-23T01:47:14.231Z,19.00
2022-10-23T01:49:57.755Z,18.90
2022-10-23T01:52:26.422Z,18.90
2022-10-23T01:55:01.293Z,18.90
2022-10-23T01:57:36.323Z,18.90
2022-10-23T02:00:11.157Z,18.90
2022-10-23T02:03:03.193Z,18.90
2022-10-23T02:05:34.593Z,18.90
2022-10-23T02:08:04.766Z,18.90
2022-10-23T02:10:42.641Z,18.90
2022-10-23T02:13:19.951Z,18.80
2022-10-23T02:15:52.900Z,18.80
2022-10-23T02:18:37.100Z,18.80
2022-10-23T02:21:12.111Z,18.80
2022-10-23T02:23:50.387Z,18.80
2022-10-23T02:26:27.350Z,18.80
2022-10-23T02:29:02.755Z,18.80
2022-10-23T02:31:33.837Z,18.80
2022-10-23T02:34:02.060Z,18.80
2022-10-23T02:36:30.539Z,18.80
2022-10-23T02:38:59.052Z,18.80
2022-10-23T02:41:40.016Z,18.70
2022-10-23T02:44:29.565Z,18.70
2022-10-23T02:47:13.373Z,18.70
2022-10-23T02:49:52.945Z,18.70
2022-10-23T02:52:29.379Z,18.70
2022-10-23T02:55:15.122Z,18.70
2022-10-23T02:57:57.809Z,18.70
2022-10-23T03:00:30.231Z,18.60
2022-10-23T03:03:06.982Z,18.70
2022-10-23T03:05:40.042Z,18.70
2022-10-23T03:08:12.250Z,18.70
2022-10-23T03:10:40.993Z,18.70
2022-10-23T03:13:10.462Z,18.70
2022-10-23T03:15:45.408Z,18.70
2022-10-23T03:18:16.983Z,18.70
2022-10-23T03:20:51.452Z,18.70
2022-10-23T03:23:23.067Z,18.70
2022-10-23T03:25:51.394Z,18.70
2022-10-23T03:28:33.005Z,18.70
2022-10-23T03:31:02.143Z,18.60
2022-10-23T03:33:32.005Z,18.60
2022-10-23T03:36:09.344Z,18.60
2022-10-23T03:38:37.522Z,18.60
2022-10-23T03:41:07.093Z,18.60
2022-10-23T03:43:35.186Z,18.60
2022-10-23T03:46:08.970Z,18.60
2022-10-23T03:48:39.100Z,18.60
2022-10-23T03:51:07.722Z,18.60
2022-10-23T03:53:36.117Z,18.60
2022-10-23T03:56:06.207Z,18.50
2022-10-23T03:58:35.063Z,18.60
2022-10-23T04:01:03.325Z,18.60
2022-10-23T04:03:31.447Z,18.50
2022-10-23T04:06:00.851Z,18.50
2022-10-23T04:08:29.122Z,18.50
2022-10-23T04:10:57.425Z,18.50
2022-10-23T04:13:33.866Z,18.40
2022-10-23T04:16:02.222Z,18.50
2022-10-23T04:18:30.339Z,18.50
2022-10-23T04:20:59.791Z,18.50
2022-10-23T04:23:27.864Z,18.50
2022-10-23T04:25:58.412Z,18.50
2022-10-23T04:28:28.287Z,18.50
2022-10-23T04:30:56.747Z,18.50
2022-10-23T04:33:25.048Z,18.40
2022-10-23T04:35:53.827Z,18.40
2022-10-23T04:38:23.314Z,18.40
2022-10-23T04:40:51.742Z,18.40
2022-10-23T04:43:23.867Z,18.40
2022-10-23T04:45:52.169Z,18.40
2022-10-23T04:48:25.512Z,18.40
2022-10-23T04:51:15.008Z,18.40
2022-10-23T04:53:55.927Z,18.40
2022-10-23T04:56:42.643Z,18.30
2022-10-23T04:59:17.204Z,18.30
2022-10-23T05:01:46.333Z,18.30
2022-10-23T05:04:15.355Z,18.30
2022-10-23T05:07:18.496Z,18.30
2022-10-23T05:09:55.857Z,18.30
2022-10-23T05:12:40.735Z,18.30
2022-10-23T05:15:09.695Z,18.30
2022-10-23T05:17:42.623Z,18.30
2022-10-23T05:20:18.263Z,18.30
2022-10-23T05:22:51.111Z,18.30
2022-10-23T05:25:23.288Z,18.30
2022-10-23T05:27:58.617Z,18.30
2022-10-23T05:30:27.374Z,18.30
2022-10-23T05:32:56.100Z,18.30
2022-10-23T05:35:27.595Z,18.30
2022-10-23T05:38:01.187Z,18.20
2022-10-23T05:40:30.810Z,18.20
2022-10-23T05:43:10.052Z,18.20
2022-10-23T05:45:58.593Z,18.20
2022-10-23T05:48:46.120Z,18.20
2022-10-23T05:51:52.597Z,18.20
2022-10-23T05:54:20.649Z,18.20
2022-10-23T05:57:09.193Z,18.20
2022-10-23T05:59:45.912Z,18.20
2022-10-23T06:02:41.646Z,18.20
2022-10-23T06:05:26.485Z,18.20
2022-10-23T06:08:20.934Z,18.20
2022-10-23T06:10:51.368Z,18.10
2022-10-23T06:13:21.423Z,18.20
2022-10-23T06:15:49.742Z,18.20
2022-10-23T06:18:23.327Z,18.20
2022-10-23T06:21:02.647Z,18.20
2022-10-23T06:23:32.999Z,18.20
2022-10-23T06:26:20.777Z,18.10
2022-10-23T06:28:58.898Z,18.10
2022-10-23T06:31:28.367Z,18.20
2022-10-23T06:34:00.543Z,18.10
2022-10-23T06:36:30.886Z,18.20
2022-10-23T06:39:08.302Z,18.20
2022-10-23T06:41:54.998Z,18.20
2022-10-23T06:45:04.723Z,18.20
2022-10-23T06:47:54.405Z,18.20
2022-10-23T06:50:41.839Z,18.20
2022-10-23T06:53:16.467Z,18.20
2022-10-23T06:55:53.048Z,18.20
2022-10-23T06:58:23.591Z,18.20
2022-10-23T07:01:04.629Z,18.20
2022-10-23T07:03:34.343Z,18.20
2022-10-23T07:06:06.713Z,18.20
2022-10-23T07:08:35.293Z,18.30
2022-10-23T07:11:10.395Z,18.30
2022-10-23T07:13:40.498Z,18.30
2022-10-23T07:16:22.996Z,18.30
2022-10-23T07:18:58.722Z,18.30
2022-10-23T07:21:31.815Z,18.30
2022-10-23T07:24:26.190Z,18.40
2022-10-23T07:26:55.912Z,18.40
2022-10-23T07:29:25.742Z,18.40
2022-10-23T07:31:55.212Z,18.40
2022-10-23T07:34:46.349Z,18.40
2022-10-23T07:37:26.188Z,18.40
2022-10-23T07:39:54.248Z,18.40
2022-10-23T07:42:22.370Z,18.50
2022-10-23T07:44:51.633Z,18.50
2022-10-23T07:47:21.123Z,18.50
2022-10-23T07:49:52.014Z,18.50
2022-10-23T07:52:22.028Z,18.60
2022-10-23T07:55:13.193Z,18.60
2022-10-23T07:57:54.463Z,18.60
2022-10-23T08:00:32.759Z,18.70
2022-10-23T08:03:13.367Z,18.70
2022-10-23T08:05:42.039Z,18.70
2022-10-23T08:08:10.766Z,18.80
2022-10-23T08:10:41.827Z,18.80
2022-10-23T08:13:14.307Z,18.80
2022-10-23T08:16:00.455Z,18.80
2022-10-23T08:18:55.558Z,18.90
2022-10-23T08:21:24.478Z,18.90
2022-10-23T08:23:55.786Z,18.90
2022-10-23T08:26:25.619Z,19.00
2022-10-23T08:28:54.429Z,19.00
2022-10-23T08:31:24.386Z,19.00
2022-10-23T08:34:13.996Z,19.10
2022-10-23T08:36:43.018Z,19.10
2022-10-23T08:39:11.117Z,19.10
2022-10-23T08:41:48.624Z,19.10
2022-10-23T08:44:26.888Z,19.10
2022-10-23T08:47:03.507Z,19.20
2022-10-23T08:50:13.566Z,19.20
2022-10-23T08:52:50.585Z,19.20
2022-10-23T08:55:27.058Z,19.30
2022-10-23T08:58:01.890Z,19.30
2022-10-23T09:00:30.308Z,19.40
2022-10-23T09:03:02.554Z,19.40
2022-10-23T09:05:45.458Z,19.40
2022-10-23T09:08:29.968Z,19.40
2022-10-23T09:11:10.643Z,19.40
2022-10-23T09:13:56.325Z,19.50
2022-10-23T09:16:42.502Z,19.50
2022-10-23T09:19:18.406Z,19.50
2022-10-23T09:21:50.872Z,19.50
2022-10-23T09:24:21.829Z,19.60
2022-10-23T09:26:53.059Z,19.60
2022-10-23T09:29:26.753Z,19.70
2022-10-23T09:31:57.717Z,19.70
2022-10-23T09:34:28.295Z,19.70
2022-10-23T09:37:00.917Z,19.70
2022-10-23T09:39:32.543Z,19.70
2022-10-23T09:42:02.623Z,19.80
2022-10-23T09:44:33.508Z,19.90
2022-10-23T09:47:11.180Z,19.90
2022-10-23T09:49:47.870Z,19.90
2022-10-23T09:52:30.892Z,19.90
2022-10-23T09:55:02.147Z,19.90
2022-10-23T09:57:36.903Z,20.00
2022-10-23T10:00:18.214Z,20.00
2022-10-23T10:02:58.346Z,20.00
2022-10-23T10:05:43.875Z,20.00
2022-10-23T10:08:30.704Z,20.00
2022-10-23T10:11:04.129Z,20.10
2022-10-23T10:13:57.086Z,20.10
2022-10-23T10:19:25.272Z,20.10
2022-10-23T10:22:04.843Z,20.10
2022-10-23T10:24:46.287Z,20.20
2022-10-23T10:27:31.342Z,20.20
2022-10-23T10:30:12.898Z,20.20
2022-10-23T10:32:48.330Z,20.30
2022-10-23T10:35:38.357Z,20.30
2022-10-23T10:38:46.238Z,20.30
2022-10-23T10:41:42.527Z,20.30
2022-10-23T10:44:28.972Z,20.30
2022-10-23T10:47:00.627Z,20.40
2022-10-23T10:49:41.335Z,20.40
2022-10-23T10:52:38.910Z,20.40
2022-10-23T10:55:20.092Z,20.40
2022-10-23T10:57:59.936Z,20.50
2022-10-23T11:00:34.335Z,20.50
2022-10-23T11:03:10.673Z,20.50
2022-10-23T11:05:45.337Z,20.50
2022-10-23T11:08:20.596Z,20.60
2022-10-23T11:10:55.205Z,20.60
2022-10-23T11:13:29.999Z,20.60
2022-10-23T11:16:04.234Z,20.70
2022-10-23T11:18:34.672Z,20.70
2022-10-23T11:21:21.602Z,20.70
2022-10-23T11:24:45.395Z,20.70
2022-10-23T11:28:14.272Z,20.70
2022-10-23T11:31:11.579Z,20.80
2022-10-23T11:34:31.071Z,20.80
2022-10-23T11:37:01.841Z,20.80
2022-10-23T11:39:32.411Z,20.80
2022-10-23T11:42:16.710Z,20.80
2022-10-23T11:44:47.080Z,20.90
2022-10-23T11:47:39.708Z,20.90
2022-10-23T11:50:25.912Z,20.90
2022-10-23T11:53:15.742Z,20.90
2022-10-23T11:56:04.103Z,20.90
2022-10-23T11:58:45.074Z,21.00
2022-10-23T12:01:34.900Z,21.00
2022-10-23T12:04:22.107Z,21.00
2022-10-23T12:06:55.333Z,21.10
2022-10-23T12:09:32.651Z,21.10
2022-10-23T12:12:16.843Z,21.00
2022-10-23T12:14:48.166Z,21.10
2022-10-23T12:17:37.829Z,21.10
2022-10-23T12:20:39.143Z,21.10
2022-10-23T12:24:09.989Z,21.10
2022-10-23T12:27:01.162Z,21.20
2022-10-23T12:30:03.421Z,21.20
2022-10-23T12:32:54.319Z,21.20
2022-10-23T12:35:59.204Z,21.20
2022-10-23T12:38:33.932Z,21.30
2022-10-23T12:41:15.318Z,21.30
2022-10-23T12:43:52.619Z,21.30
2022-10-23T12:46:34.071Z,21.30
2022-10-23T12:49:13.574Z,21.40
2022-10-23T12:51:42.970Z,21.40
2022-10-23T12:54:20.026Z,21.40
2022-10-23T12:56:49.392Z,21.40
2022-10-23T12:59:21.504Z,21.40
2022-10-23T13:01:52.786Z,21.50
2022-10-23T13:04:30.680Z,21.40
2022-10-23T13:07:04.117Z,21.50
2022-10-23T13:09:43.103Z,21.50
2022-10-23T13:12:24.473Z,21.50
2022-10-23T13:14:59.952Z,21.50
2022-10-23T13:17:41.864Z,21.50
2022-10-23T13:20:20.248Z,21.50
2022-10-23T13:23:00.419Z,21.50
2022-10-23T13:25:32.440Z,21.60
2022-10-23T13:28:16.125Z,21.60
2022-10-23T13:30:46.386Z,21.60
2022-10-23T13:33:24.540Z,21.60
2022-10-23T13:35:58.987Z,21.60
2022-10-23T13:38:34.661Z,21.60
2022-10-23T13:41:05.923Z,21.60
2022-10-23T13:43:35.228Z,21.70
2022-10-23T13:46:03.826Z,21.70
2022-10-23T13:48:33.430Z,21.70
2022-10-23T13:51:13.062Z,21.70
2022-10-23T13:53:42.499Z,21.70
2022-10-23T13:56:14.709Z,21.70
2022-10-23T13:58:43.318Z,21.70
2022-10-23T14:01:22.211Z,21.70
2022-10-23T14:03:50.598Z,21.80
2022-10-23T14:06:18.839Z,21.80
2022-10-23T14:08:48.568Z,21.80
2022-10-23T14:11:19.615Z,21.80
2022-10-23T14:13:49.844Z,21.80
2022-10-23T14:16:21.475Z,21.80
2022-10-23T14:18:50.029Z,21.80
2022-10-23T14:21:21.385Z,21.80
2022-10-23T14:23:52.817Z,21.80
2022-10-23T14:26:24.541Z,21.80
2022-10-23T14:29:00.688Z,21.80
2022-10-23T14:31:32.959Z,21.80
2022-10-23T14:34:01.764Z,21.80
2022-10-23T14:36:38.734Z,21.80
2022-10-23T14:39:20.216Z,21.80
2022-10-23T14:41:48.887Z,21.80
2022-10-23T14:44:17.184Z,21.90
2022-10-23T14:46:45.370Z,21.90
2022-10-23T14:49:13.423Z,21.90
2022-10-23T14:51:41.510Z,21.90
2022-10-23T14:54:10.621Z,21.90
2022-10-23T14:56:41.291Z,21.90
2022-10-23T14:59:10.808Z,21.90
2022-10-23T15:01:45.201Z,21.90
2022-10-23T15:04:16.333Z,21.90
2022-10-23T15:06:46.491Z,21.90
2022-10-23T15:09:15.666Z,21.90
2022-10-23T15:11:45.630Z,21.90
2022-10-23T15:14:14.464Z,21.90
2022-10-23T15:16:43.036Z,21.90
2022-10-23T15:19:17.098Z,21.90
2022-10-23T15:21:47.358Z,21.90
2022-10-23T15:24:15.545Z,21.90
2022-10-23T15:26:45.183Z,21.90
2022-10-23T15:29:14.959Z,21.90
2022-10-23T15:31:53.587Z,21.80
2022-10-23T15:34:25.269Z,21.90
2022-10-23T15:36:55.648Z,21.90
2022-10-23T15:39:27.043Z,21.90
2022-10-23T15:41:58.365Z,21.90
2022-10-23T15:44:29.552Z,21.90
2022-10-23T15:46:58.887Z,21.90
2022-10-23T15:49:29.560Z,21.90
2022-10-23T15:51:58.182Z,21.90
2022-10-23T15:54:29.255Z,21.90
2022-10-23T15:57:03.019Z,21.80
2022-10-23T15:59:33.035Z,21.90
2022-10-23T16:02:01.366Z,21.90
2022-10-23T16:04:30.081Z,21.90
2022-10-23T16:06:58.383Z,21.90
2022-10-23T16:09:27.067Z,21.90
2022-10-23T16:11:55.335Z,21.90
2022-10-23T16:14:24.750Z,21.80
2022-10-23T16:16:52.946Z,21.80
2022-10-23T16:19:21.010Z,21.80
2022-10-23T16:21:49.101Z,21.80
2022-10-23T16:24:17.260Z,21.80
2022-10-23T16:26:50.197Z,21.80
2022-10-23T16:29:18.351Z,21.80
2022-10-23T16:31:48.312Z,21.70
2022-10-23T16:34:17.451Z,21.80
2022-10-23T16:36:46.070Z,21.80
2022-10-23T16:39:25.760Z,21.80
2022-10-23T16:42:12.594Z,21.80
2022-10-23T16:45:11.324Z,21.80
2022-10-23T16:47:40.929Z,21.80
2022-10-23T16:50:09.679Z,21.80
2022-10-23T16:52:38.804Z,21.80
2022-10-23T16:55:08.142Z,21.80
2022-10-23T16:57:36.890Z,21.70
2022-10-23T17:00:07.560Z,21.70
2022-10-23T17:02:35.695Z,21.80
2022-10-23T17:05:05.992Z,21.70
2022-10-23T17:07:34.442Z,21.70
2022-10-23T17:10:02.460Z,21.70
2022-10-23T17:12:30.503Z,21.70
2022-10-23T17:14:58.513Z,21.70
2022-10-23T17:17:26.557Z,21.70
2022-10-23T17:19:54.576Z,21.70
2022-10-23T17:22:23.957Z,21.70
2022-10-23T17:24:53.205Z,21.70
2022-10-23T17:27:22.393Z,21.70
2022-10-23T17:29:50.432Z,21.70
2022-10-23T17:32:18.765Z,21.70
2022-10-23T17:34:46.885Z,21.70
2022-10-23T17:37:14.925Z,21.70
2022-10-23T17:39:44.337Z,21.60
2022-10-23T17:42:12.391Z,21.60
2022-10-23T17:44:40.373Z,21.60
2022-10-23T17:47:08.435Z,21.60
2022-10-23T17:49:36.488Z,21.60
2022-10-23T17:55:00.109Z,21.60
2022-10-23T17:57:28.584Z,21.60
2022-10-23T17:59:56.618Z,21.60
2022-10-23T18:02:25.007Z,21.60
2022-10-23T18:04:53.658Z,21.60
2022-10-23T18:07:21.686Z,21.60
2022-10-23T18:09:49.768Z,21.60
2022-10-23T18:12:19.477Z,21.50
2022-10-23T18:14:47.555Z,21.60
2022-10-23T18:17:15.622Z,21.50
2022-10-23T18:19:43.653Z,21.50
2022-10-23T18:22:11.809Z,21.50
2022-10-23T18:24:39.899Z,21.50
2022-10-23T18:27:08.302Z,21.50
2022-10-23T18:29:39.430Z,21.50
2022-10-23T18:32:07.470Z,21.50
2022-10-23T18:34:35.662Z,21.50
2022-10-23T18:37:03.803Z,21.50
2022-10-23T18:39:31.962Z,21.50
2022-10-23T18:42:00.081Z,21.50
2022-10-23T18:44:29.327Z,21.50
2022-10-23T18:47:00.533Z,21.50
2022-10-23T18:49:29.066Z,21.50
2022-10-23T18:51:58.279Z,21.50
2022-10-23T18:54:26.349Z,21.40
2022-10-23T18:56:54.460Z,21.40
2022-10-23T18:59:24.833Z,21.40
2022-10-23T19:01:53.509Z,21.40
2022-10-23T19:04:23.190Z,21.40
2022-10-23T19:06:52.235Z,21.40
2022-10-23T19:09:21.630Z,21.40
2022-10-23T19:11:50.247Z,21.40
2022-10-23T19:14:18.966Z,21.40
2022-10-23T19:16:59.262Z,21.40
2022-10-23T19:19:33.198Z,21.40
2022-10-23T19:22:03.727Z,21.40
2022-10-23T19:24:39.234Z,21.30
2022-10-23T19:27:08.848Z,21.40
2022-10-23T19:29:42.078Z,21.30
2022-10-23T19:32:11.363Z,21.40
2022-10-23T19:34:41.173Z,21.40
2022-10-23T19:37:10.668Z,21.40
2022-10-23T19:39:39.511Z,21.40
2022-10-23T19:42:08.829Z,21.40
2022-10-23T19:44:42.794Z,21.40
2022-10-23T19:47:12.619Z,21.30
2022-10-23T19:49:43.417Z,21.30
2022-10-23T19:52:15.870Z,21.30
2022-10-23T19:54:47.718Z,21.40
2022-10-23T19:57:19.208Z,21.40
2022-10-23T19:59:51.522Z,21.40
2022-10-23T20:02:24.249Z,21.40
2022-10-23T20:04:54.472Z,21.30
2022-10-23T20:07:23.971Z,21.40
2022-10-23T20:09:52.143Z,21.40
2022-10-23T20:12:20.356Z,21.30
2022-10-23T20:14:48.510Z,21.40
2022-10-23T20:17:16.655Z,21.40
2022-10-23T20:19:45.369Z,21.40
2022-10-23T20:22:16.198Z,21.40
2022-10-23T20:24:45.395Z,21.40
2022-10-23T20:27:15.090Z,21.40
2022-10-23T20:29:44.816Z,21.40
2022-10-23T20:32:15.803Z,21.40
2022-10-23T20:34:45.137Z,21.40
2022-10-23T20:37:18.924Z,21.30
2022-10-23T20:39:48.838Z,21.40
2022-10-23T20:42:17.878Z,21.40
2022-10-23T20:44:45.860Z,21.40
2022-10-23T20:47:14.725Z,21.40
2022-10-23T20:49:43.630Z,21.40
2022-10-23T20:52:12.708Z,21.40
2022-10-23T20:54:42.375Z,21.30
2022-10-23T20:57:10.436Z,21.40
2022-10-23T20:59:38.463Z,21.40
2022-10-23T21:02:06.821Z,21.40
2022-10-23T21:04:35.021Z,21.40
2022-10-23T21:07:11.411Z,21.40
2022-10-23T21:09:40.391Z,21.40
2022-10-23T21:12:10.607Z,21.40
2022-10-23T21:14:40.221Z,21.40
2022-10-23T21:17:10.611Z,21.40
2022-10-23T21:19:40.267Z,21.40
2022-10-23T21:22:08.327Z,21.40
2022-10-23T21:24:36.426Z,21.40
2022-10-23T21:27:04.599Z,21.40
2022-10-23T21:29:34.516Z,21.40
2022-10-23T21:32:02.662Z,21.40
2022-10-23T21:34:32.430Z,21.40
2022-10-23T21:37:17.334Z,21.40
2022-10-23T21:39:47.116Z,21.30
2022-10-23T21:42:16.142Z,21.30
2022-10-23T21:44:45.854Z,21.20
2022-10-23T21:47:13.889Z,21.30
2022-10-23T21:49:41.886Z,21.40
2022-10-23T21:52:09.846Z,21.30
2022-10-23T21:54:38.033Z,21.20
2022-10-23T21:57:06.143Z,21.30
2022-10-23T21:59:35.955Z,21.30
2022-10-23T22:02:06.139Z,21.30
2022-10-23T22:04:34.325Z,21.30
2022-10-23T22:07:03.654Z,21.20
2022-10-23T22:09:33.123Z,21.30
2022-10-23T22:12:01.973Z,21.30
2022-10-23T22:14:30.107Z,21.30
2022-10-23T22:16:58.160Z,21.30
2022-10-23T22:19:27.550Z,21.30
2022-10-23T22:21:55.960Z,21.30
2022-10-23T22:24:24.522Z,21.30
2022-10-23T22:26:55.168Z,21.30
2022-10-23T22:29:26.269Z,21.20
2022-10-23T22:31:54.647Z,21.30
2022-10-23T22:34:34.929Z,21.30
2022-10-23T22:37:14.614Z,21.20
2022-10-23T22:39:42.878Z,21.20
2022-10-23T22:42:10.945Z,21.20
2022-10-23T22:44:38.948Z,21.20
2022-10-23T22:47:07.233Z,21.20
2022-10-23T22:49:35.362Z,21.20
2022-10-23T22:52:03.383Z,21.20
2022-10-23T22:54:32.883Z,21.20
2022-10-23T22:57:00.900Z,21.20
2022-10-23T22:59:28.987Z,21.20
2022-10-23T23:01:57.123Z,21.20
2022-10-23T23:04:37.275Z,21.20
2022-10-23T23:07:07.039Z,21.20
2022-10-23T23:09:39.555Z,21.10
2022-10-23T23:12:09.747Z,21.10
2022-10-23T23:14:38.578Z,21.10
2022-10-23T23:17:08.448Z,21.10
2022-10-23T23:19:37.306Z,21.10
2022-10-23T23:22:05.729Z,21.10
2022-10-23T23:24:33.929Z,21.10
2022-10-23T23:27:03.348Z,21.10
2022-10-23T23:29:31.357Z,21.10
2022-10-23T23:31:59.541Z,21.10
2022-10-23T23:34:27.745Z,21.10
2022-10-23T23:36:55.761Z,21.10
2022-10-23T23:39:25.944Z,21.10
2022-10-23T23:41:53.961Z,21.10
2022-10-23T23:44:23.329Z,21.00
2022-10-23T23:46:51.335Z,21.00
2022-10-23T23:49:19.371Z,21.00
2022-10-23T23:51:47.394Z,21.00
2022-10-23T23:54:15.557Z,21.00
2022-10-23T23:56:43.645Z,21.00
2022-10-23T23:59:11.626Z,21.00
